sensor_id;sensor_type;location;lat;lon;timestamp;temperature;humidity
51950;DHT22;37974;53.218;6.640;2022-12-20T00:00:44;8.80;99.90
51950;DHT22;37974;53.218;6.640;2022-12-20T00:03:10;8.90;99.90
51950;DHT22;37974;53.218;6.640;2022-12-20T00:05:37;8.80;99.90
51950;DHT22;37974;53.218;6.640;2022-12-20T00:08:03;8.20;99.90
51950;DHT22;37974;53.218;6.640;2022-12-20T00:10:36;8.80;99.90
51950;DHT22;37974;53.218;6.640;2022-12-20T00:13:02;8.70;99.90
51950;DHT22;37974;53.218;6.640;2022-12-20T00:15:32;8.60;99.90
51950;DHT22;37974;53.218;6.640;2022-12-20T00:17:58;8.60;99.90
51950;DHT22;37974;53.218;6.640;2022-12-20T00:20:25;8.70;99.90
51950;DHT22;37974;53.218;6.640;2022-12-20T00:22:51;8.60;99.90
51950;DHT22;37974;53.218;6.640;2022-12-20T00:25:17;9.00;99.90
51950;DHT22;37974;53.218;6.640;2022-12-20T00:27:45;8.60;99.90
51950;DHT22;37974;53.218;6.640;2022-12-20T00:30:11;8.60;99.90
51950;DHT22;37974;53.218;6.640;2022-12-20T00:32:37;8.60;99.90
51950;DHT22;37974;53.218;6.640;2022-12-20T00:35:04;8.80;99.90
51950;DHT22;37974;53.218;6.640;2022-12-20T00:37:29;8.60;99.90
51950;DHT22;37974;53.218;6.640;2022-12-20T00:39:55;8.70;99.90
51950;DHT22;37974;53.218;6.640;2022-12-20T00:42:21;8.40;99.90
51950;DHT22;37974;53.218;6.640;2022-12-20T00:44:47;8.10;99.90
51950;DHT22;37974;53.218;6.640;2022-12-20T00:47:13;8.50;99.90
51950;DHT22;37974;53.218;6.640;2022-12-20T00:49:39;8.50;99.90
51950;DHT22;37974;53.218;6.640;2022-12-20T00:52:06;8.70;99.90
51950;DHT22;37974;53.218;6.640;2022-12-20T00:54:32;8.40;99.90
51950;DHT22;37974;53.218;6.640;2022-12-20T00:57:02;8.50;99.90
51950;DHT22;37974;53.218;6.640;2022-12-20T00:59:28;8.60;99.90
51950;DHT22;37974;53.218;6.640;2022-12-20T01:01:55;8.30;99.90
51950;DHT22;37974;53.218;6.640;2022-12-20T01:04:20;8.60;99.90
51950;DHT22;37974;53.218;6.640;2022-12-20T01:06:46;8.60;99.90
51950;DHT22;37974;53.218;6.640;2022-12-20T01:09:12;8.60;99.90
51950;DHT22;37974;53.218;6.640;2022-12-20T01:11:38;8.80;99.90
51950;DHT22;37974;53.218;6.640;2022-12-20T01:14:07;8.70;99.90
51950;DHT22;37974;53.218;6.640;2022-12-20T01:16:40;8.80;99.90
51950;DHT22;37974;53.218;6.640;2022-12-20T01:19:07;8.80;99.90
51950;DHT22;37974;53.218;6.640;2022-12-20T01:21:34;8.80;99.90
51950;DHT22;37974;53.218;6.640;2022-12-20T01:23:59;8.80;99.90
51950;DHT22;37974;53.218;6.640;2022-12-20T01:26:28;8.90;99.90
51950;DHT22;37974;53.218;6.640;2022-12-20T01:28:56;8.90;99.90
51950;DHT22;37974;53.218;6.640;2022-12-20T01:31:23;8.90;99.90
51950;DHT22;37974;53.218;6.640;2022-12-20T01:33:50;8.90;99.90
51950;DHT22;37974;53.218;6.640;2022-12-20T01:36:22;8.90;99.90
51950;DHT22;37974;53.218;6.640;2022-12-20T01:38:49;8.90;99.90
51950;DHT22;37974;53.218;6.640;2022-12-20T01:41:20;8.80;99.90
51950;DHT22;37974;53.218;6.640;2022-12-20T01:43:58;8.90;99.90
51950;DHT22;37974;53.218;6.640;2022-12-20T01:46:27;8.80;99.90
51950;DHT22;37974;53.218;6.640;2022-12-20T01:49:00;8.80;99.90
51950;DHT22;37974;53.218;6.640;2022-12-20T01:51:38;8.80;99.90
51950;DHT22;37974;53.218;6.640;2022-12-20T01:54:12;8.80;99.90
51950;DHT22;37974;53.218;6.640;2022-12-20T01:56:40;8.80;99.90
51950;DHT22;37974;53.218;6.640;2022-12-20T01:59:09;8.80;99.90
51950;DHT22;37974;53.218;6.640;2022-12-20T02:01:35;9.60;99.90
51950;DHT22;37974;53.218;6.640;2022-12-20T02:04:01;9.10;99.90
51950;DHT22;37974;53.218;6.640;2022-12-20T02:06:29;8.80;99.90
51950;DHT22;37974;53.218;6.640;2022-12-20T02:08:58;8.80;99.90
51950;DHT22;37974;53.218;6.640;2022-12-20T02:14:13;8.80;99.90
51950;DHT22;37974;53.218;6.640;2022-12-20T02:20:20;8.40;99.90
51950;DHT22;37974;53.218;6.640;2022-12-20T02:23:14;8.80;99.90
51950;DHT22;37974;53.218;6.640;2022-12-20T02:31:54;8.90;99.90
51950;DHT22;37974;53.218;6.640;2022-12-20T02:34:23;8.80;99.90
51950;DHT22;37974;53.218;6.640;2022-12-20T02:36:51;8.90;99.90
51950;DHT22;37974;53.218;6.640;2022-12-20T02:39:20;8.80;99.90
51950;DHT22;37974;53.218;6.640;2022-12-20T02:41:52;8.90;99.90
51950;DHT22;37974;53.218;6.640;2022-12-20T02:44:21;8.80;99.90
51950;DHT22;37974;53.218;6.640;2022-12-20T02:47:13;8.80;99.90
51950;DHT22;37974;53.218;6.640;2022-12-20T02:49:49;8.30;99.90
51950;DHT22;37974;53.218;6.640;2022-12-20T02:52:29;8.80;99.90
51950;DHT22;37974;53.218;6.640;2022-12-20T02:54:57;8.90;99.90
51950;DHT22;37974;53.218;6.640;2022-12-20T02:57:40;8.50;99.90
51950;DHT22;37974;53.218;6.640;2022-12-20T03:00:12;8.90;99.90
51950;DHT22;37974;53.218;6.640;2022-12-20T03:02:40;9.40;99.90
51950;DHT22;37974;53.218;6.640;2022-12-20T03:05:26;8.90;99.90
51950;DHT22;37974;53.218;6.640;2022-12-20T03:07:53;8.90;99.90
51950;DHT22;37974;53.218;6.640;2022-12-20T03:10:20;8.90;99.90
51950;DHT22;37974;53.218;6.640;2022-12-20T03:12:46;8.90;99.90
51950;DHT22;37974;53.218;6.640;2022-12-20T03:15:12;8.90;99.90
51950;DHT22;37974;53.218;6.640;2022-12-20T03:18:03;8.80;99.90
51950;DHT22;37974;53.218;6.640;2022-12-20T03:20:30;8.50;99.90
51950;DHT22;37974;53.218;6.640;2022-12-20T03:22:56;8.90;99.90
51950;DHT22;37974;53.218;6.640;2022-12-20T03:25:22;8.80;99.90
51950;DHT22;37974;53.218;6.640;2022-12-20T03:27:52;8.90;99.90
51950;DHT22;37974;53.218;6.640;2022-12-20T03:30:21;8.80;99.90
51950;DHT22;37974;53.218;6.640;2022-12-20T03:32:52;8.80;99.90
51950;DHT22;37974;53.218;6.640;2022-12-20T03:35:42;8.70;99.90
51950;DHT22;37974;53.218;6.640;2022-12-20T03:38:11;8.90;99.90
51950;DHT22;37974;53.218;6.640;2022-12-20T03:40:38;8.70;99.90
51950;DHT22;37974;53.218;6.640;2022-12-20T03:43:04;8.80;99.90
51950;DHT22;37974;53.218;6.640;2022-12-20T03:45:31;8.70;99.90
51950;DHT22;37974;53.218;6.640;2022-12-20T03:47:57;8.80;99.90
51950;DHT22;37974;53.218;6.640;2022-12-20T03:50:24;8.80;99.90
51950;DHT22;37974;53.218;6.640;2022-12-20T03:52:51;8.70;99.90
51950;DHT22;37974;53.218;6.640;2022-12-20T03:55:18;8.90;99.90
51950;DHT22;37974;53.218;6.640;2022-12-20T03:57:44;8.80;99.90
51950;DHT22;37974;53.218;6.640;2022-12-20T04:00:11;8.70;99.90
51950;DHT22;37974;53.218;6.640;2022-12-20T04:02:38;8.90;99.90
51950;DHT22;37974;53.218;6.640;2022-12-20T04:05:05;8.60;99.90
51950;DHT22;37974;53.218;6.640;2022-12-20T04:07:34;8.70;99.90
51950;DHT22;37974;53.218;6.640;2022-12-20T04:10:00;8.70;99.90
51950;DHT22;37974;53.218;6.640;2022-12-20T04:12:27;8.80;99.90
51950;DHT22;37974;53.218;6.640;2022-12-20T04:14:58;8.80;99.90
51950;DHT22;37974;53.218;6.640;2022-12-20T04:17:25;9.00;99.90
51950;DHT22;37974;53.218;6.640;2022-12-20T04:19:55;8.90;99.90
51950;DHT22;37974;53.218;6.640;2022-12-20T04:22:25;9.00;99.90
51950;DHT22;37974;53.218;6.640;2022-12-20T04:24:53;8.90;99.90
51950;DHT22;37974;53.218;6.640;2022-12-20T04:27:45;8.90;99.90
51950;DHT22;37974;53.218;6.640;2022-12-20T04:30:14;9.00;99.90
51950;DHT22;37974;53.218;6.640;2022-12-20T04:32:41;9.00;99.90
51950;DHT22;37974;53.218;6.640;2022-12-20T04:35:21;9.00;99.90
51950;DHT22;37974;53.218;6.640;2022-12-20T04:37:49;9.00;99.90
51950;DHT22;37974;53.218;6.640;2022-12-20T04:40:15;8.90;99.90
51950;DHT22;37974;53.218;6.640;2022-12-20T04:42:40;9.00;99.90
51950;DHT22;37974;53.218;6.640;2022-12-20T04:45:32;8.90;99.90
51950;DHT22;37974;53.218;6.640;2022-12-20T04:48:04;9.10;99.90
51950;DHT22;37974;53.218;6.640;2022-12-20T04:50:32;9.00;99.90
51950;DHT22;37974;53.218;6.640;2022-12-20T04:52:58;9.00;99.90
51950;DHT22;37974;53.218;6.640;2022-12-20T04:55:52;9.10;99.90
51950;DHT22;37974;53.218;6.640;2022-12-20T04:58:18;8.90;99.90
51950;DHT22;37974;53.218;6.640;2022-12-20T05:00:44;9.10;99.90
51950;DHT22;37974;53.218;6.640;2022-12-20T05:03:11;9.20;99.90
51950;DHT22;37974;53.218;6.640;2022-12-20T05:05:40;9.10;99.90
51950;DHT22;37974;53.218;6.640;2022-12-20T05:08:06;9.30;99.90
51950;DHT22;37974;53.218;6.640;2022-12-20T05:10:31;9.30;99.90
51950;DHT22;37974;53.218;6.640;2022-12-20T05:13:01;9.10;99.90
51950;DHT22;37974;53.218;6.640;2022-12-20T05:15:31;9.20;99.90
51950;DHT22;37974;53.218;6.640;2022-12-20T05:17:56;9.40;99.90
51950;DHT22;37974;53.218;6.640;2022-12-20T05:20:26;9.30;99.90
51950;DHT22;37974;53.218;6.640;2022-12-20T05:23:04;9.20;99.90
51950;DHT22;37974;53.218;6.640;2022-12-20T05:25:49;9.20;99.90
51950;DHT22;37974;53.218;6.640;2022-12-20T05:28:36;8.90;99.90
51950;DHT22;37974;53.218;6.640;2022-12-20T05:31:03;9.10;99.90
51950;DHT22;37974;53.218;6.640;2022-12-20T05:33:51;9.20;99.90
51950;DHT22;37974;53.218;6.640;2022-12-20T05:36:40;9.20;99.90
51950;DHT22;37974;53.218;6.640;2022-12-20T05:39:05;9.40;99.90
51950;DHT22;37974;53.218;6.640;2022-12-20T05:41:31;9.50;99.90
51950;DHT22;37974;53.218;6.640;2022-12-20T05:43:58;9.40;99.90
51950;DHT22;37974;53.218;6.640;2022-12-20T05:46:25;9.40;99.90
51950;DHT22;37974;53.218;6.640;2022-12-20T05:48:51;9.60;99.90
51950;DHT22;37974;53.218;6.640;2022-12-20T05:51:17;9.40;99.90
51950;DHT22;37974;53.218;6.640;2022-12-20T05:53:46;9.40;99.90
51950;DHT22;37974;53.218;6.640;2022-12-20T05:56:20;9.60;99.90
51950;DHT22;37974;53.218;6.640;2022-12-20T05:58:46;9.50;99.90
51950;DHT22;37974;53.218;6.640;2022-12-20T06:01:11;9.50;99.90
51950;DHT22;37974;53.218;6.640;2022-12-20T06:03:41;9.60;99.90
51950;DHT22;37974;53.218;6.640;2022-12-20T06:06:08;9.40;99.90
51950;DHT22;37974;53.218;6.640;2022-12-20T06:08:34;9.50;99.90
51950;DHT22;37974;53.218;6.640;2022-12-20T06:11:00;10.30;99.90
51950;DHT22;37974;53.218;6.640;2022-12-20T06:13:29;9.60;99.90
51950;DHT22;37974;53.218;6.640;2022-12-20T06:15:55;9.60;99.90
51950;DHT22;37974;53.218;6.640;2022-12-20T06:18:21;9.50;99.90
51950;DHT22;37974;53.218;6.640;2022-12-20T06:20:59;9.60;99.90
51950;DHT22;37974;53.218;6.640;2022-12-20T06:23:26;9.60;99.90
51950;DHT22;37974;53.218;6.640;2022-12-20T06:25:58;9.60;99.90
51950;DHT22;37974;53.218;6.640;2022-12-20T06:28:24;9.50;99.90
51950;DHT22;37974;53.218;6.640;2022-12-20T06:30:52;9.50;99.90
51950;DHT22;37974;53.218;6.640;2022-12-20T06:33:18;9.70;99.90
51950;DHT22;37974;53.218;6.640;2022-12-20T06:35:44;9.50;99.90
51950;DHT22;37974;53.218;6.640;2022-12-20T06:38:10;9.70;99.90
51950;DHT22;37974;53.218;6.640;2022-12-20T06:40:36;9.60;99.90
51950;DHT22;37974;53.218;6.640;2022-12-20T06:43:02;9.80;99.90
51950;DHT22;37974;53.218;6.640;2022-12-20T06:45:28;9.80;99.90
51950;DHT22;37974;53.218;6.640;2022-12-20T06:47:56;9.90;99.90
51950;DHT22;37974;53.218;6.640;2022-12-20T06:50:23;9.70;99.90
51950;DHT22;37974;53.218;6.640;2022-12-20T06:52:56;9.70;99.90
51950;DHT22;37974;53.218;6.640;2022-12-20T06:55:26;9.70;99.90
51950;DHT22;37974;53.218;6.640;2022-12-20T06:57:53;9.80;99.90
51950;DHT22;37974;53.218;6.640;2022-12-20T07:00:20;9.80;99.90
51950;DHT22;37974;53.218;6.640;2022-12-20T07:02:46;9.80;99.90
51950;DHT22;37974;53.218;6.640;2022-12-20T07:05:11;9.90;99.90
51950;DHT22;37974;53.218;6.640;2022-12-20T07:07:37;9.80;99.90
51950;DHT22;37974;53.218;6.640;2022-12-20T07:10:03;10.40;99.90
51950;DHT22;37974;53.218;6.640;2022-12-20T07:12:29;9.80;99.90
51950;DHT22;37974;53.218;6.640;2022-12-20T07:14:55;9.90;99.90
51950;DHT22;37974;53.218;6.640;2022-12-20T07:17:21;9.70;99.90
51950;DHT22;37974;53.218;6.640;2022-12-20T07:19:46;9.60;99.90
51950;DHT22;37974;53.218;6.640;2022-12-20T07:22:12;9.80;99.90
51950;DHT22;37974;53.218;6.640;2022-12-20T07:24:38;9.60;99.90
51950;DHT22;37974;53.218;6.640;2022-12-20T07:27:09;9.60;99.90
51950;DHT22;37974;53.218;6.640;2022-12-20T07:29:36;9.50;99.90
51950;DHT22;37974;53.218;6.640;2022-12-20T07:32:05;9.70;99.90
51950;DHT22;37974;53.218;6.640;2022-12-20T07:34:35;9.60;99.90
51950;DHT22;37974;53.218;6.640;2022-12-20T07:37:10;9.70;99.90
51950;DHT22;37974;53.218;6.640;2022-12-20T07:39:41;9.70;99.90
51950;DHT22;37974;53.218;6.640;2022-12-20T07:42:07;9.60;99.90
51950;DHT22;37974;53.218;6.640;2022-12-20T07:44:34;9.50;99.90
51950;DHT22;37974;53.218;6.640;2022-12-20T07:47:00;9.60;99.90
51950;DHT22;37974;53.218;6.640;2022-12-20T07:49:26;9.60;99.90
51950;DHT22;37974;53.218;6.640;2022-12-20T07:51:57;9.70;99.90
51950;DHT22;37974;53.218;6.640;2022-12-20T07:54:30;9.50;99.90
51950;DHT22;37974;53.218;6.640;2022-12-20T07:57:00;9.60;99.90
51950;DHT22;37974;53.218;6.640;2022-12-20T07:59:35;9.80;99.90
51950;DHT22;37974;53.218;6.640;2022-12-20T08:02:02;9.70;99.90
51950;DHT22;37974;53.218;6.640;2022-12-20T08:04:29;9.80;99.90
51950;DHT22;37974;53.218;6.640;2022-12-20T08:06:57;10.00;99.90
51950;DHT22;37974;53.218;6.640;2022-12-20T08:09:28;9.70;99.90
51950;DHT22;37974;53.218;6.640;2022-12-20T08:11:57;9.70;99.90
51950;DHT22;37974;53.218;6.640;2022-12-20T08:14:25;9.60;99.90
51950;DHT22;37974;53.218;6.640;2022-12-20T08:16:52;9.90;99.90
51950;DHT22;37974;53.218;6.640;2022-12-20T08:19:22;9.90;99.90
51950;DHT22;37974;53.218;6.640;2022-12-20T08:21:49;9.80;99.90
51950;DHT22;37974;53.218;6.640;2022-12-20T08:24:24;9.90;99.90
51950;DHT22;37974;53.218;6.640;2022-12-20T08:26:50;9.80;99.90
51950;DHT22;37974;53.218;6.640;2022-12-20T08:29:16;10.00;99.90
51950;DHT22;37974;53.218;6.640;2022-12-20T08:31:44;10.00;99.90
51950;DHT22;37974;53.218;6.640;2022-12-20T08:34:10;10.00;99.90
51950;DHT22;37974;53.218;6.640;2022-12-20T08:36:36;9.90;99.90
51950;DHT22;37974;53.218;6.640;2022-12-20T08:39:04;10.00;99.90
51950;DHT22;37974;53.218;6.640;2022-12-20T08:41:33;10.00;99.90
51950;DHT22;37974;53.218;6.640;2022-12-20T08:43:59;9.90;99.90
51950;DHT22;37974;53.218;6.640;2022-12-20T08:46:25;10.00;99.90
51950;DHT22;37974;53.218;6.640;2022-12-20T08:48:51;10.00;99.90
51950;DHT22;37974;53.218;6.640;2022-12-20T08:51:17;10.00;99.90
51950;DHT22;37974;53.218;6.640;2022-12-20T08:53:43;10.00;99.90
51950;DHT22;37974;53.218;6.640;2022-12-20T08:56:12;10.10;99.90
51950;DHT22;37974;53.218;6.640;2022-12-20T08:58:39;10.10;99.90
51950;DHT22;37974;53.218;6.640;2022-12-20T09:01:07;10.10;99.90
51950;DHT22;37974;53.218;6.640;2022-12-20T09:03:34;10.10;99.90
51950;DHT22;37974;53.218;6.640;2022-12-20T09:06:05;10.10;99.90
51950;DHT22;37974;53.218;6.640;2022-12-20T09:08:38;10.10;99.90
51950;DHT22;37974;53.218;6.640;2022-12-20T09:11:07;10.10;99.90
51950;DHT22;37974;53.218;6.640;2022-12-20T09:13:43;10.10;99.90
51950;DHT22;37974;53.218;6.640;2022-12-20T09:16:11;10.10;99.90
51950;DHT22;37974;53.218;6.640;2022-12-20T09:18:38;10.20;99.90
51950;DHT22;37974;53.218;6.640;2022-12-20T09:21:06;10.20;99.90
51950;DHT22;37974;53.218;6.640;2022-12-20T09:23:32;10.20;99.90
51950;DHT22;37974;53.218;6.640;2022-12-20T09:26:03;10.20;99.90
51950;DHT22;37974;53.218;6.640;2022-12-20T09:28:30;10.20;99.90
51950;DHT22;37974;53.218;6.640;2022-12-20T09:30:58;10.30;99.90
51950;DHT22;37974;53.218;6.640;2022-12-20T09:33:27;10.40;99.90
51950;DHT22;37974;53.218;6.640;2022-12-20T09:35:58;10.40;99.90
51950;DHT22;37974;53.218;6.640;2022-12-20T09:38:27;10.50;99.90
51950;DHT22;37974;53.218;6.640;2022-12-20T09:41:05;10.40;99.90
51950;DHT22;37974;53.218;6.640;2022-12-20T09:43:36;10.40;99.90
51950;DHT22;37974;53.218;6.640;2022-12-20T09:46:13;10.40;99.90
51950;DHT22;37974;53.218;6.640;2022-12-20T09:48:49;10.50;99.90
51950;DHT22;37974;53.218;6.640;2022-12-20T09:54:06;10.60;99.90
51950;DHT22;37974;53.218;6.640;2022-12-20T09:56:54;10.60;99.90
51950;DHT22;37974;53.218;6.640;2022-12-20T09:59:24;10.60;99.90
51950;DHT22;37974;53.218;6.640;2022-12-20T10:01:52;10.60;99.90
51950;DHT22;37974;53.218;6.640;2022-12-20T10:04:34;10.60;99.90
51950;DHT22;37974;53.218;6.640;2022-12-20T10:07:34;10.70;99.90
51950;DHT22;37974;53.218;6.640;2022-12-20T10:13:50;10.70;99.90
51950;DHT22;37974;53.218;6.640;2022-12-20T10:16:27;10.40;99.90
51950;DHT22;37974;53.218;6.640;2022-12-20T10:24:37;10.60;99.90
51950;DHT22;37974;53.218;6.640;2022-12-20T10:27:16;10.60;99.90
51950;DHT22;37974;53.218;6.640;2022-12-20T10:29:44;10.60;99.90
51950;DHT22;37974;53.218;6.640;2022-12-20T10:32:13;10.60;99.90
51950;DHT22;37974;53.218;6.640;2022-12-20T10:34:50;10.60;99.90
51950;DHT22;37974;53.218;6.640;2022-12-20T10:37:16;10.60;99.90
51950;DHT22;37974;53.218;6.640;2022-12-20T10:39:46;10.70;99.90
51950;DHT22;37974;53.218;6.640;2022-12-20T10:44:58;10.50;99.90
51950;DHT22;37974;53.218;6.640;2022-12-20T10:50:16;10.70;99.90
51950;DHT22;37974;53.218;6.640;2022-12-20T10:52:43;10.60;99.90
51950;DHT22;37974;53.218;6.640;2022-12-20T10:58:03;10.60;99.90
51950;DHT22;37974;53.218;6.640;2022-12-20T11:00:31;10.90;99.90
51950;DHT22;37974;53.218;6.640;2022-12-20T11:03:17;10.70;99.90
51950;DHT22;37974;53.218;6.640;2022-12-20T11:05:58;10.80;99.90
51950;DHT22;37974;53.218;6.640;2022-12-20T11:08:25;10.90;99.90
51950;DHT22;37974;53.218;6.640;2022-12-20T11:13:36;10.80;99.90
51950;DHT22;37974;53.218;6.640;2022-12-20T11:16:02;10.70;99.90
51950;DHT22;37974;53.218;6.640;2022-12-20T11:21:17;10.70;99.90
51950;DHT22;37974;53.218;6.640;2022-12-20T11:24:13;10.70;99.90
51950;DHT22;37974;53.218;6.640;2022-12-20T11:27:07;10.60;99.90
51950;DHT22;37974;53.218;6.640;2022-12-20T11:29:44;10.60;99.90
51950;DHT22;37974;53.218;6.640;2022-12-20T11:35:04;10.50;99.90
51950;DHT22;37974;53.218;6.640;2022-12-20T11:37:41;10.50;99.90
51950;DHT22;37974;53.218;6.640;2022-12-20T11:45:38;10.50;99.90
51950;DHT22;37974;53.218;6.640;2022-12-20T11:48:29;10.40;99.90
51950;DHT22;37974;53.218;6.640;2022-12-20T11:51:01;10.00;99.90
51950;DHT22;37974;53.218;6.640;2022-12-20T11:56:25;10.30;99.90
51950;DHT22;37974;53.218;6.640;2022-12-20T11:59:04;9.70;99.90
51950;DHT22;37974;53.218;6.640;2022-12-20T12:01:38;10.40;99.90
51950;DHT22;37974;53.218;6.640;2022-12-20T12:04:22;10.30;99.90
51950;DHT22;37974;53.218;6.640;2022-12-20T12:09:36;10.30;99.90
51950;DHT22;37974;53.218;6.640;2022-12-20T12:12:22;10.30;99.90
51950;DHT22;37974;53.218;6.640;2022-12-20T12:18:00;10.20;99.90
51950;DHT22;37974;53.218;6.640;2022-12-20T12:23:20;10.30;99.90
51950;DHT22;37974;53.218;6.640;2022-12-20T12:25:47;10.20;99.90
51950;DHT22;37974;53.218;6.640;2022-12-20T12:28:14;10.30;99.90
51950;DHT22;37974;53.218;6.640;2022-12-20T12:30:48;10.10;99.90
51950;DHT22;37974;53.218;6.640;2022-12-20T12:33:24;10.10;99.90
51950;DHT22;37974;53.218;6.640;2022-12-20T12:44:37;10.20;99.90
51950;DHT22;37974;53.218;6.640;2022-12-20T12:47:13;10.20;99.90
51950;DHT22;37974;53.218;6.640;2022-12-20T12:49:44;10.10;99.90
51950;DHT22;37974;53.218;6.640;2022-12-20T12:52:27;10.20;99.90
51950;DHT22;37974;53.218;6.640;2022-12-20T12:54:53;10.20;99.90
51950;DHT22;37974;53.218;6.640;2022-12-20T12:57:20;10.20;99.90
51950;DHT22;37974;53.218;6.640;2022-12-20T12:59:47;10.10;99.90
51950;DHT22;37974;53.218;6.640;2022-12-20T13:09:58;10.10;99.90
51950;DHT22;37974;53.218;6.640;2022-12-20T13:17:54;10.00;99.90
51950;DHT22;37974;53.218;6.640;2022-12-20T13:20:26;10.00;99.90
51950;DHT22;37974;53.218;6.640;2022-12-20T13:25:40;10.00;99.90
51950;DHT22;37974;53.218;6.640;2022-12-20T13:30:41;10.00;99.90
51950;DHT22;37974;53.218;6.640;2022-12-20T13:33:23;10.10;99.90
51950;DHT22;37974;53.218;6.640;2022-12-20T13:36:28;10.10;99.90
51950;DHT22;37974;53.218;6.640;2022-12-20T13:38:55;10.20;99.90
51950;DHT22;37974;53.218;6.640;2022-12-20T13:41:40;10.00;99.90
51950;DHT22;37974;53.218;6.640;2022-12-20T13:44:27;10.10;99.90
51950;DHT22;37974;53.218;6.640;2022-12-20T13:47:13;10.00;99.90
51950;DHT22;37974;53.218;6.640;2022-12-20T13:49:43;10.00;99.90
51950;DHT22;37974;53.218;6.640;2022-12-20T13:54:40;10.10;99.90
51950;DHT22;37974;53.218;6.640;2022-12-20T13:57:12;10.10;99.90
51950;DHT22;37974;53.218;6.640;2022-12-20T13:59:39;10.20;99.90
51950;DHT22;37974;53.218;6.640;2022-12-20T14:02:23;10.20;99.90
51950;DHT22;37974;53.218;6.640;2022-12-20T14:04:57;10.10;99.90
51950;DHT22;37974;53.218;6.640;2022-12-20T14:07:24;10.10;99.90
51950;DHT22;37974;53.218;6.640;2022-12-20T14:09:57;10.30;99.90
51950;DHT22;37974;53.218;6.640;2022-12-20T14:12:23;10.30;99.90
51950;DHT22;37974;53.218;6.640;2022-12-20T14:14:50;10.20;99.90
51950;DHT22;37974;53.218;6.640;2022-12-20T14:17:30;10.20;99.90
51950;DHT22;37974;53.218;6.640;2022-12-20T14:22:30;10.10;99.90
51950;DHT22;37974;53.218;6.640;2022-12-20T14:24:56;10.20;99.90
51950;DHT22;37974;53.218;6.640;2022-12-20T14:27:31;10.20;99.90
51950;DHT22;37974;53.218;6.640;2022-12-20T14:29:58;10.20;99.90
51950;DHT22;37974;53.218;6.640;2022-12-20T14:32:24;10.20;99.90
51950;DHT22;37974;53.218;6.640;2022-12-20T14:34:51;10.10;99.90
51950;DHT22;37974;53.218;6.640;2022-12-20T14:39:54;10.30;99.90
51950;DHT22;37974;53.218;6.640;2022-12-20T14:42:20;10.20;99.90
51950;DHT22;37974;53.218;6.640;2022-12-20T14:44:46;10.30;99.90
51950;DHT22;37974;53.218;6.640;2022-12-20T14:47:17;10.30;99.90
51950;DHT22;37974;53.218;6.640;2022-12-20T14:49:50;10.30;99.90
51950;DHT22;37974;53.218;6.640;2022-12-20T14:55:01;10.10;99.90
51950;DHT22;37974;53.218;6.640;2022-12-20T14:57:37;10.10;99.90
51950;DHT22;37974;53.218;6.640;2022-12-20T15:02:39;10.30;99.90
51950;DHT22;37974;53.218;6.640;2022-12-20T15:05:08;10.10;99.90
51950;DHT22;37974;53.218;6.640;2022-12-20T15:07:53;10.10;99.90
51950;DHT22;37974;53.218;6.640;2022-12-20T15:10:19;10.20;99.90
51950;DHT22;37974;53.218;6.640;2022-12-20T15:12:45;10.20;99.90
51950;DHT22;37974;53.218;6.640;2022-12-20T15:15:13;10.20;99.90
51950;DHT22;37974;53.218;6.640;2022-12-20T15:17:40;10.10;99.90
51950;DHT22;37974;53.218;6.640;2022-12-20T15:20:11;10.00;99.90
51950;DHT22;37974;53.218;6.640;2022-12-20T15:22:37;10.00;99.90
51950;DHT22;37974;53.218;6.640;2022-12-20T15:25:14;10.00;99.90
51950;DHT22;37974;53.218;6.640;2022-12-20T15:27:41;10.00;99.90
51950;DHT22;37974;53.218;6.640;2022-12-20T15:30:11;10.10;99.90
51950;DHT22;37974;53.218;6.640;2022-12-20T15:32:38;10.10;99.90
51950;DHT22;37974;53.218;6.640;2022-12-20T15:35:11;10.00;99.90
51950;DHT22;37974;53.218;6.640;2022-12-20T15:37:37;10.10;99.90
51950;DHT22;37974;53.218;6.640;2022-12-20T15:40:03;9.80;99.90
51950;DHT22;37974;53.218;6.640;2022-12-20T15:42:29;10.10;99.90
51950;DHT22;37974;53.218;6.640;2022-12-20T15:44:55;10.10;99.90
51950;DHT22;37974;53.218;6.640;2022-12-20T15:47:22;10.00;99.90
51950;DHT22;37974;53.218;6.640;2022-12-20T15:49:47;10.10;99.90
51950;DHT22;37974;53.218;6.640;2022-12-20T15:52:18;10.10;99.90
51950;DHT22;37974;53.218;6.640;2022-12-20T15:54:44;10.00;99.90
51950;DHT22;37974;53.218;6.640;2022-12-20T15:57:12;9.90;99.90
51950;DHT22;37974;53.218;6.640;2022-12-20T15:59:39;10.10;99.90
51950;DHT22;37974;53.218;6.640;2022-12-20T16:04:42;10.10;99.90
51950;DHT22;37974;53.218;6.640;2022-12-20T16:07:10;9.90;99.90
51950;DHT22;37974;53.218;6.640;2022-12-20T16:09:37;10.10;99.90
51950;DHT22;37974;53.218;6.640;2022-12-20T16:12:02;10.10;99.90
51950;DHT22;37974;53.218;6.640;2022-12-20T16:14:28;10.20;99.90
51950;DHT22;37974;53.218;6.640;2022-12-20T16:16:54;10.00;99.90
51950;DHT22;37974;53.218;6.640;2022-12-20T16:19:20;10.10;99.90
51950;DHT22;37974;53.218;6.640;2022-12-20T16:21:48;9.90;99.90
51950;DHT22;37974;53.218;6.640;2022-12-20T16:24:17;10.00;99.90
51950;DHT22;37974;53.218;6.640;2022-12-20T16:26:44;10.10;99.90
51950;DHT22;37974;53.218;6.640;2022-12-20T16:29:10;9.90;99.90
51950;DHT22;37974;53.218;6.640;2022-12-20T16:31:37;10.00;99.90
51950;DHT22;37974;53.218;6.640;2022-12-20T16:34:06;10.00;99.90
51950;DHT22;37974;53.218;6.640;2022-12-20T16:36:32;10.00;99.90
51950;DHT22;37974;53.218;6.640;2022-12-20T16:38:58;9.90;99.90
51950;DHT22;37974;53.218;6.640;2022-12-20T16:41:26;9.90;99.90
51950;DHT22;37974;53.218;6.640;2022-12-20T16:43:54;9.60;99.90
51950;DHT22;37974;53.218;6.640;2022-12-20T16:46:22;10.00;99.90
51950;DHT22;37974;53.218;6.640;2022-12-20T16:48:50;9.80;99.90
51950;DHT22;37974;53.218;6.640;2022-12-20T16:51:24;10.00;99.90
51950;DHT22;37974;53.218;6.640;2022-12-20T16:53:52;9.90;99.90
51950;DHT22;37974;53.218;6.640;2022-12-20T16:56:18;9.90;99.90
51950;DHT22;37974;53.218;6.640;2022-12-20T16:58:44;9.80;99.90
51950;DHT22;37974;53.218;6.640;2022-12-20T17:01:17;9.90;99.90
51950;DHT22;37974;53.218;6.640;2022-12-20T17:03:45;9.90;99.90
51950;DHT22;37974;53.218;6.640;2022-12-20T17:06:13;9.90;99.90
51950;DHT22;37974;53.218;6.640;2022-12-20T17:08:54;9.90;99.90
51950;DHT22;37974;53.218;6.640;2022-12-20T17:11:25;9.90;99.90
51950;DHT22;37974;53.218;6.640;2022-12-20T17:13:53;9.80;99.90
51950;DHT22;37974;53.218;6.640;2022-12-20T17:16:21;9.90;99.90
51950;DHT22;37974;53.218;6.640;2022-12-20T17:18:49;9.90;99.90
51950;DHT22;37974;53.218;6.640;2022-12-20T17:23:44;9.80;99.90
51950;DHT22;37974;53.218;6.640;2022-12-20T17:26:21;9.90;99.90
51950;DHT22;37974;53.218;6.640;2022-12-20T17:28:48;9.60;99.90
51950;DHT22;37974;53.218;6.640;2022-12-20T17:31:30;9.40;99.90
51950;DHT22;37974;53.218;6.640;2022-12-20T17:34:03;9.90;99.90
51950;DHT22;37974;53.218;6.640;2022-12-20T17:36:34;9.70;99.90
51950;DHT22;37974;53.218;6.640;2022-12-20T17:39:00;9.70;99.90
51950;DHT22;37974;53.218;6.640;2022-12-20T17:41:28;9.60;99.90